Terminal Aerodrome Forecast
Issued by NWS

Home | Current Version | Previous Version | Text Only | Print | Product List | Glossary On
Versions: 1 2 3 4 5 6 7 8 9 10 11 12 13 14 15 16 17 18 19 20 21 22 23 24 25
000
FTUS46 KHNX 172320
TAFMER
TAF
KMER 172320Z 1800/1824 00000KT P6SM SCT020 BKN090
      TEMPO 1801/1805 4SM -SHRA BR
     FM181200 13006KT 1 1/2SM BR OVC001
      TEMPO 1813/1816 1/2SM FG OVC001
     FM181800 13009KT 4SM HZ BR OVC025=

USA.gov is the U.S. government's official web portal to all federal, state and local government web resources and services.